createdAt,value
2023-04-28T00:00:54.260Z,71.85
2023-04-28T00:03:42.911Z,72.38
2023-04-28T00:06:32.010Z,71.83
2023-04-28T00:09:20.697Z,71.67
2023-04-28T00:12:09.059Z,72.37
2023-04-28T00:14:58.809Z,72.36
2023-04-28T00:17:47.352Z,72.21
2023-04-28T00:20:35.758Z,71.43
2023-04-28T00:23:24.173Z,71.90
2023-04-28T00:26:12.619Z,71.58
2023-04-28T00:29:02.988Z,71.89
2023-04-28T00:31:52.861Z,72.10
2023-04-28T00:34:41.724Z,71.93
2023-04-28T00:37:30.100Z,71.83
2023-04-28T00:40:18.558Z,71.75
2023-04-28T00:43:07.092Z,71.99
2023-04-28T00:45:55.673Z,72.79
2023-04-28T00:48:45.458Z,72.50
2023-04-28T00:51:34.422Z,73.42
2023-04-28T00:54:22.965Z,73.83
2023-04-28T00:57:11.587Z,72.71
2023-04-28T00:59:59.969Z,73.15
2023-04-28T01:02:48.492Z,72.37
2023-04-28T01:05:41.289Z,73.32
2023-04-28T01:08:29.794Z,74.19
2023-04-28T01:11:18.809Z,74.00
2023-04-28T01:14:42.337Z,73.72
2023-04-28T01:17:30.915Z,74.01
2023-04-28T01:20:19.572Z,73.05
2023-04-28T01:23:13.275Z,74.83
2023-04-28T01:26:03.476Z,74.39
2023-04-28T01:28:51.913Z,74.57
2023-04-28T01:31:41.299Z,74.59
2023-04-28T01:34:29.806Z,74.73
2023-04-28T01:37:18.243Z,74.89
2023-04-28T01:40:08.135Z,74.68
2023-04-28T01:42:57.877Z,74.10
2023-04-28T01:45:46.266Z,74.36
2023-04-28T01:48:34.660Z,73.59
2023-04-28T01:51:23.066Z,74.68
2023-04-28T01:54:11.418Z,73.83
2023-04-28T01:57:02.453Z,74.72
2023-04-28T01:59:53.587Z,74.72
2023-04-28T02:02:42.189Z,73.81
2023-04-28T02:05:30.655Z,74.30
2023-04-28T02:08:18.970Z,75.21
2023-04-28T02:11:07.384Z,75.13
2023-04-28T02:13:56.078Z,74.65
2023-04-28T02:16:45.831Z,75.57
2023-04-28T02:19:34.194Z,74.38
2023-04-28T02:22:22.568Z,75.28
2023-04-28T02:25:11.212Z,74.92
2023-04-28T02:28:00.327Z,74.38
2023-04-28T02:30:48.771Z,75.30
2023-04-28T02:33:39.888Z,75.82
2023-04-28T02:36:28.828Z,74.61
2023-04-28T02:39:17.255Z,75.05
2023-04-28T02:42:05.790Z,75.12
2023-04-28T02:44:54.137Z,74.64
2023-04-28T02:47:42.834Z,74.94
2023-04-28T02:50:32.616Z,74.11
2023-04-28T02:53:21.249Z,74.08
2023-04-28T02:56:10.066Z,73.91
2023-04-28T02:58:58.617Z,73.75
2023-04-28T03:01:47.296Z,73.69
2023-04-28T03:04:35.887Z,74.81
2023-04-28T03:07:25.679Z,74.84
2023-04-28T03:10:14.873Z,74.34
2023-04-28T03:13:03.478Z,75.13
2023-04-28T03:15:52.565Z,74.79
2023-04-28T03:18:40.983Z,74.93
2023-04-28T03:21:29.746Z,75.13
2023-04-28T03:24:19.507Z,75.09
2023-04-28T03:27:08.019Z,74.47
2023-04-28T03:29:58.344Z,75.36
2023-04-28T03:32:46.734Z,74.81
2023-04-28T03:35:35.188Z,76.08
2023-04-28T03:38:23.597Z,75.06
2023-04-28T03:41:13.622Z,75.35
2023-04-28T03:44:23.483Z,74.98
2023-04-28T03:47:13.592Z,75.29
2023-04-28T03:50:02.271Z,74.11
2023-04-28T03:52:50.870Z,75.71
2023-04-28T03:55:39.813Z,76.57
2023-04-28T03:58:29.542Z,75.48
2023-04-28T04:01:17.957Z,74.83
2023-04-28T04:04:07.084Z,73.94
2023-04-28T04:06:56.094Z,73.90
2023-04-28T04:09:45.057Z,75.35
2023-04-28T04:12:33.424Z,75.22
2023-04-28T04:15:23.219Z,74.04
2023-04-28T04:18:11.822Z,73.94
2023-04-28T04:21:20.209Z,73.97
2023-04-28T04:24:10.779Z,74.41
2023-04-28T04:26:59.698Z,74.16
2023-04-28T04:29:55.313Z,74.70
2023-04-28T04:32:45.103Z,74.76
2023-04-28T04:35:33.856Z,74.83
2023-04-28T04:38:22.229Z,74.45
2023-04-28T04:41:10.635Z,73.54
2023-04-28T04:43:59.001Z,73.94
2023-04-28T04:46:52.313Z,73.42
2023-04-28T04:49:42.615Z,74.31
2023-04-28T04:52:31.138Z,73.88
2023-04-28T04:55:19.917Z,73.69
2023-04-28T04:58:08.482Z,73.63
2023-04-28T05:01:05.789Z,74.33
2023-04-28T05:03:54.557Z,73.11
2023-04-28T05:06:45.083Z,73.37
2023-04-28T05:09:34.874Z,73.71
2023-04-28T05:12:23.251Z,74.25
2023-04-28T05:15:12.526Z,73.60
2023-04-28T05:18:11.037Z,74.79
2023-04-28T05:20:59.565Z,73.19
2023-04-28T05:23:50.037Z,75.08
2023-04-28T05:26:38.483Z,75.05
2023-04-28T05:29:30.523Z,75.47
2023-04-28T05:32:18.934Z,75.52
2023-04-28T05:35:08.123Z,76.45
2023-04-28T05:37:56.673Z,75.38
2023-04-28T05:40:46.448Z,74.78
2023-04-28T05:43:34.937Z,75.37
2023-04-28T05:46:30.801Z,77.23
2023-04-28T05:49:21.153Z,76.78
2023-04-28T05:52:09.552Z,76.49
2023-04-28T05:54:58.156Z,76.64
2023-04-28T05:57:53.171Z,78.29
2023-04-28T06:00:42.096Z,78.76
2023-04-28T06:03:30.661Z,78.54
2023-04-28T06:06:19.209Z,78.72
2023-04-28T06:09:07.919Z,78.52
2023-04-28T06:11:56.424Z,77.30
2023-04-28T06:14:46.333Z,77.60
2023-04-28T06:17:35.167Z,77.37
2023-04-28T06:20:23.574Z,77.86
2023-04-28T06:23:12.020Z,77.85
2023-04-28T06:26:05.528Z,79.00
2023-04-28T06:28:53.961Z,78.79
2023-04-28T06:31:43.729Z,78.54
2023-04-28T06:34:32.871Z,79.08
2023-04-28T06:37:21.274Z,80.36
2023-04-28T06:40:10.931Z,80.73
2023-04-28T06:43:02.688Z,80.09
2023-04-28T06:46:05.120Z,79.85
2023-04-28T06:48:54.818Z,79.57
2023-04-28T06:51:43.324Z,80.27
2023-04-28T06:54:32.054Z,82.17
2023-04-28T06:57:21.133Z,85.17
2023-04-28T07:00:11.943Z,86.38
2023-04-28T07:03:00.475Z,86.44
2023-04-28T07:05:50.455Z,86.14
2023-04-28T07:08:38.809Z,85.32
2023-04-28T07:11:27.165Z,84.94
2023-04-28T07:14:15.790Z,86.18
2023-04-28T07:17:04.351Z,86.28
2023-04-28T07:19:52.752Z,86.31
2023-04-28T07:22:42.569Z,85.76
2023-04-28T07:25:31.138Z,85.56
2023-04-28T07:28:20.414Z,85.68
2023-04-28T07:31:08.876Z,85.07
2023-04-28T07:33:57.763Z,85.56
2023-04-28T07:36:46.387Z,85.31
2023-04-28T07:39:36.181Z,85.27
2023-04-28T07:42:24.640Z,85.86
2023-04-28T07:45:13.950Z,86.77
2023-04-28T07:48:02.380Z,89.44
2023-04-28T07:50:50.848Z,88.43
2023-04-28T07:53:39.194Z,88.29
2023-04-28T07:56:28.910Z,88.00
2023-04-28T07:59:17.251Z,87.66
2023-04-28T08:02:06.126Z,88.75
2023-04-28T08:04:54.727Z,87.71
2023-04-28T08:07:43.309Z,91.36
2023-04-28T08:10:31.687Z,90.86
2023-04-28T08:13:21.476Z,90.79
2023-04-28T08:16:09.921Z,89.94
2023-04-28T08:18:59.043Z,93.52
2023-04-28T08:21:47.519Z,93.30
2023-04-28T08:24:36.112Z,92.10
2023-04-28T08:27:25.807Z,91.66
2023-04-28T08:30:15.577Z,95.19
2023-04-28T08:33:04.061Z,96.57
2023-04-28T08:35:52.562Z,95.45
2023-04-28T08:38:40.974Z,95.78
2023-04-28T08:41:30.009Z,94.20
2023-04-28T08:44:18.825Z,94.42
2023-04-28T08:47:14.250Z,93.48
2023-04-28T08:50:04.917Z,91.98
2023-04-28T08:52:53.798Z,91.93
2023-04-28T08:55:42.447Z,91.29
2023-04-28T08:58:30.811Z,90.51
2023-04-28T09:01:19.237Z,89.95
2023-04-28T09:04:12.662Z,90.75
2023-04-28T09:07:02.746Z,89.63
2023-04-28T09:09:51.485Z,89.63
2023-04-28T09:12:40.002Z,89.66
2023-04-28T09:15:32.679Z,89.46
2023-04-28T09:18:22.140Z,90.28
2023-04-28T09:21:13.374Z,89.10
2023-04-28T09:24:01.809Z,89.43
2023-04-28T09:26:52.556Z,88.15
2023-04-28T09:29:53.888Z,88.64
2023-04-28T09:32:42.917Z,87.63
2023-04-28T09:35:41.001Z,87.06
2023-04-28T09:38:30.845Z,87.75
2023-04-28T09:41:19.209Z,87.83
2023-04-28T09:44:15.327Z,87.14
2023-04-28T09:47:22.261Z,87.85
2023-04-28T09:50:14.603Z,88.13
2023-04-28T09:53:04.156Z,88.56
2023-04-28T09:55:56.028Z,89.56
2023-04-28T09:58:45.684Z,88.40
2023-04-28T10:01:37.572Z,88.15
2023-04-28T10:04:27.194Z,87.91
2023-04-28T10:07:16.658Z,88.50
2023-04-28T10:10:05.575Z,88.84
2023-04-28T10:12:56.906Z,89.27
2023-04-28T10:15:46.152Z,88.89
2023-04-28T10:18:36.479Z,88.72
2023-04-28T10:21:25.403Z,89.00
2023-04-28T10:24:17.174Z,89.14
2023-04-28T10:27:08.513Z,89.20
2023-04-28T10:30:22.865Z,89.53
2023-04-28T10:33:25.602Z,89.58
2023-04-28T10:36:50.923Z,89.71
2023-04-28T10:39:39.672Z,89.50
2023-04-28T10:42:53.390Z,90.40
2023-04-28T10:46:06.460Z,89.68
2023-04-28T10:48:58.675Z,90.83
2023-04-28T10:51:47.106Z,90.43
2023-04-28T10:54:36.382Z,91.33
2023-04-28T10:57:24.771Z,90.79
2023-04-28T11:00:29.229Z,91.08
2023-04-28T11:03:47.216Z,90.88
2023-04-28T11:06:37.474Z,91.31
2023-04-28T11:09:50.213Z,91.24
2023-04-28T11:13:17.365Z,90.69
2023-04-28T11:16:06.952Z,91.05
2023-04-28T11:19:04.530Z,91.62
2023-04-28T11:21:55.039Z,91.96
2023-04-28T11:24:43.607Z,91.85
2023-04-28T11:27:33.530Z,92.27
2023-04-28T11:30:23.007Z,92.23
2023-04-28T11:33:11.524Z,91.66
2023-04-28T11:36:01.750Z,92.01
2023-04-28T11:38:50.174Z,91.87
2023-04-28T11:41:41.174Z,93.15
2023-04-28T11:44:30.708Z,92.28
2023-04-28T11:47:29.922Z,92.80
2023-04-28T11:50:18.358Z,92.69
2023-04-28T11:53:08.325Z,92.90
2023-04-28T11:56:08.060Z,93.15
2023-04-28T11:59:04.589Z,93.67
2023-04-28T12:01:54.391Z,93.00
2023-04-28T12:04:44.149Z,92.99
2023-04-28T12:07:42.314Z,93.60
2023-04-28T12:10:32.120Z,93.53
2023-04-28T12:13:20.536Z,94.72
2023-04-28T12:16:09.726Z,94.55
2023-04-28T12:19:00.264Z,95.67
2023-04-28T12:22:03.072Z,95.49
2023-04-28T12:25:05.228Z,96.55
2023-04-28T12:28:02.885Z,96.72
2023-04-28T12:30:51.636Z,96.45
2023-04-28T12:33:40.616Z,96.80
2023-04-28T12:36:29.546Z,97.44
2023-04-28T12:39:20.026Z,98.61
2023-04-28T12:42:08.565Z,97.97
2023-04-28T12:44:58.624Z,98.77
2023-04-28T12:47:47.344Z,98.32
2023-04-28T12:50:35.930Z,98.24
2023-04-28T12:53:24.366Z,98.07
2023-04-28T12:56:12.803Z,98.64
2023-04-28T12:59:02.634Z,98.02
2023-04-28T13:01:52.587Z,97.70
2023-04-28T13:04:43.052Z,98.82
2023-04-28T13:07:32.172Z,98.57
2023-04-28T13:10:22.414Z,98.40
2023-04-28T13:13:10.921Z,98.09
2023-04-28T13:15:59.424Z,97.38
2023-04-28T13:18:50.056Z,96.70
2023-04-28T13:21:39.291Z,97.94
2023-04-28T13:24:27.887Z,96.76
2023-04-28T13:27:16.294Z,97.29
2023-04-28T13:30:05.545Z,96.83
2023-04-28T13:32:55.416Z,97.28
2023-04-28T13:35:47.094Z,98.15
2023-04-28T13:38:35.681Z,97.99
2023-04-28T13:41:24.114Z,98.89
2023-04-28T13:44:12.506Z,98.88
2023-04-28T13:47:00.937Z,98.88
2023-04-28T13:49:50.396Z,98.64
2023-04-28T13:52:40.131Z,98.59
2023-04-28T13:55:28.617Z,97.85
2023-04-28T13:58:16.979Z,97.75
2023-04-28T14:01:05.614Z,97.81
2023-04-28T14:03:54.389Z,98.41
2023-04-28T14:06:42.909Z,98.14
2023-04-28T14:09:33.386Z,98.17
2023-04-28T14:12:21.785Z,97.54
2023-04-28T14:15:10.668Z,98.18
2023-04-28T14:17:59.126Z,99.35
2023-04-28T14:20:49.098Z,100.00
2023-04-28T14:23:38.440Z,100.00
2023-04-28T14:26:28.409Z,100.00
2023-04-28T14:29:16.848Z,100.00
2023-04-28T14:32:05.394Z,100.00
2023-04-28T14:34:53.824Z,100.00
2023-04-28T14:37:42.491Z,100.00
2023-04-28T14:40:31.124Z,100.00
2023-04-28T14:43:20.958Z,100.00
2023-04-28T14:46:09.364Z,100.00
2023-04-28T14:48:58.458Z,100.00
2023-04-28T14:51:47.649Z,99.48
2023-04-28T14:54:36.181Z,100.00
2023-04-28T14:57:25.070Z,100.00
2023-04-28T15:00:16.281Z,100.00
2023-04-28T15:03:05.193Z,100.00
2023-04-28T15:05:53.892Z,100.00
2023-04-28T15:08:42.327Z,100.00
2023-04-28T15:11:30.968Z,100.00
2023-04-28T15:14:19.740Z,100.00
2023-04-28T15:17:09.848Z,100.00
2023-04-28T15:19:58.377Z,100.00
2023-04-28T15:22:46.928Z,99.93
2023-04-28T15:25:35.689Z,99.96
2023-04-28T15:28:24.042Z,100.00
2023-04-28T15:31:12.472Z,100.00
2023-04-28T15:34:02.355Z,100.00
2023-04-28T15:36:53.656Z,100.00
2023-04-28T15:39:42.510Z,100.00
2023-04-28T15:42:31.350Z,100.00
2023-04-28T15:45:20.836Z,100.00
2023-04-28T15:48:10.174Z,100.00
2023-04-28T15:50:59.926Z,100.00
2023-04-28T15:53:50.684Z,100.00
2023-04-28T15:56:39.044Z,100.00
2023-04-28T15:59:27.499Z,100.00
2023-04-28T16:02:15.954Z,100.00
2023-04-28T16:05:05.153Z,100.00
2023-04-28T16:07:55.125Z,100.00
2023-04-28T16:10:44.071Z,100.00
2023-04-28T16:13:36.939Z,99.80
2023-04-28T16:16:25.742Z,100.00
2023-04-28T16:19:15.791Z,100.00
2023-04-28T16:22:04.252Z,100.00
2023-04-28T16:24:54.287Z,100.00
2023-04-28T16:27:42.691Z,100.00
2023-04-28T16:30:32.698Z,100.00
2023-04-28T16:33:21.104Z,100.00
2023-04-28T16:36:09.598Z,100.00
2023-04-28T16:38:57.965Z,100.00
2023-04-28T16:41:47.701Z,100.00
2023-04-28T16:44:36.482Z,100.00
2023-04-28T16:47:24.930Z,100.00
2023-04-28T16:50:14.896Z,100.00
2023-04-28T16:53:03.382Z,100.00
2023-04-28T16:55:51.717Z,100.00
2023-04-28T16:58:41.641Z,99.93
2023-04-28T17:01:31.725Z,100.00
2023-04-28T17:04:20.461Z,99.75
2023-04-28T17:07:09.459Z,99.86
2023-04-28T17:09:57.989Z,98.61
2023-04-28T17:12:46.399Z,98.45
2023-04-28T17:15:36.727Z,97.85
2023-04-28T17:18:26.120Z,97.58
2023-04-28T17:21:15.626Z,96.85
2023-04-28T17:24:04.187Z,96.20
2023-04-28T17:26:52.574Z,97.80
2023-04-28T17:29:41.435Z,96.75
2023-04-28T17:32:31.990Z,96.75
2023-04-28T17:35:20.610Z,96.40
2023-04-28T17:38:09.084Z,96.51
2023-04-28T17:40:57.435Z,95.51
2023-04-28T17:43:46.022Z,97.06
2023-04-28T17:46:34.470Z,97.14
2023-04-28T17:49:25.176Z,96.70
2023-04-28T17:52:15.537Z,96.08
2023-04-28T17:55:03.920Z,95.67
2023-04-28T17:57:52.401Z,95.22
2023-04-28T18:00:40.892Z,95.13
2023-04-28T18:03:29.465Z,95.18
2023-04-28T18:06:22.346Z,94.68
2023-04-28T18:09:10.755Z,94.42
2023-04-28T18:11:59.207Z,95.18
2023-04-28T18:14:47.656Z,96.89
2023-04-28T18:17:36.050Z,96.58
2023-04-28T18:20:24.622Z,98.24
2023-04-28T18:23:14.363Z,98.62
2023-04-28T18:26:02.943Z,99.22
2023-04-28T18:28:51.402Z,100.00
2023-04-28T18:31:40.163Z,100.00
2023-04-28T18:34:28.671Z,100.00
2023-04-28T18:37:17.179Z,100.00
2023-04-28T18:40:07.703Z,100.00
2023-04-28T18:42:56.391Z,100.00
2023-04-28T18:45:45.038Z,100.00
2023-04-28T18:48:34.264Z,100.00
2023-04-28T18:51:23.010Z,100.00
2023-04-28T18:54:11.515Z,100.00
2023-04-28T18:57:01.343Z,100.00
2023-04-28T18:59:50.062Z,100.00
2023-04-28T19:02:38.732Z,100.00
2023-04-28T19:05:27.308Z,100.00
2023-04-28T19:08:15.758Z,100.00
2023-04-28T19:11:04.224Z,100.00
2023-04-28T19:13:54.217Z,100.00
2023-04-28T19:16:42.762Z,100.00
2023-04-28T19:19:31.274Z,100.00
2023-04-28T19:22:33.034Z,100.00
2023-04-28T19:25:21.496Z,100.00
2023-04-28T19:28:10.856Z,100.00
2023-04-28T19:31:00.669Z,100.00
2023-04-28T19:33:49.144Z,100.00
2023-04-28T19:36:37.650Z,100.00
2023-04-28T19:39:28.665Z,100.00
2023-04-28T19:42:17.804Z,99.61
2023-04-28T19:45:07.678Z,98.90
2023-04-28T19:47:58.037Z,99.14
2023-04-28T19:50:46.679Z,98.56
2023-04-28T19:53:38.866Z,99.19
2023-04-28T19:56:27.356Z,98.67
2023-04-28T19:59:15.904Z,98.62
2023-04-28T20:02:07.792Z,98.49
2023-04-28T20:04:57.701Z,97.76
2023-04-28T20:07:46.227Z,98.75
2023-04-28T20:10:34.709Z,97.96
2023-04-28T20:13:23.278Z,97.63
2023-04-28T20:16:11.892Z,97.86
2023-04-28T20:19:00.327Z,97.29
2023-04-28T20:21:50.229Z,96.96
2023-04-28T20:24:39.533Z,96.71
2023-04-28T20:27:28.160Z,96.37
2023-04-28T20:30:16.744Z,96.93
2023-04-28T20:33:05.424Z,96.60
2023-04-28T20:35:54.012Z,97.16
2023-04-28T20:38:44.452Z,96.76
2023-04-28T20:41:33.392Z,96.90
2023-04-28T20:44:22.199Z,96.87
2023-04-28T20:47:10.984Z,97.78
2023-04-28T20:49:59.387Z,97.26
2023-04-28T20:52:47.952Z,97.99
2023-04-28T20:55:37.927Z,97.72
2023-04-28T20:58:26.504Z,97.17
2023-04-28T21:01:15.088Z,96.98
2023-04-28T21:04:03.647Z,96.55
2023-04-28T21:06:53.406Z,97.28
2023-04-28T21:09:42.218Z,97.78
2023-04-28T21:12:32.019Z,97.28
2023-04-28T21:15:20.651Z,97.41
2023-04-28T21:18:09.324Z,97.61
2023-04-28T21:20:57.741Z,98.24
2023-04-28T21:23:46.182Z,97.71
2023-04-28T21:26:34.707Z,97.05
2023-04-28T21:29:24.785Z,96.66
2023-04-28T21:32:13.348Z,96.01
2023-04-28T21:35:01.864Z,95.49
2023-04-28T21:37:50.204Z,95.91
2023-04-28T21:40:38.593Z,96.90
2023-04-28T21:43:26.992Z,97.20
2023-04-28T21:46:18.913Z,97.22
2023-04-28T21:49:07.715Z,97.59
2023-04-28T21:51:56.078Z,97.09
2023-04-28T21:54:44.474Z,97.67
2023-04-28T21:57:33.040Z,97.31
2023-04-28T22:00:22.854Z,96.79
2023-04-28T22:03:14.700Z,97.20
2023-04-28T22:06:03.502Z,97.58
2023-04-28T22:08:51.941Z,97.41
2023-04-28T22:11:40.350Z,97.04
2023-04-28T22:14:40.240Z,97.88
2023-04-28T22:17:29.625Z,98.17
2023-04-28T22:20:19.363Z,99.40
2023-04-28T22:23:08.177Z,100.00
2023-04-28T22:25:59.102Z,99.44
2023-04-28T22:28:47.530Z,99.34
2023-04-28T22:31:35.947Z,99.39
2023-04-28T22:34:24.520Z,98.49
2023-04-28T22:37:14.356Z,99.01
2023-04-28T22:40:02.750Z,99.04
2023-04-28T22:42:51.213Z,98.99
2023-04-28T22:45:39.617Z,99.08
2023-04-28T22:48:27.974Z,98.80
2023-04-28T22:51:16.917Z,98.38
2023-04-28T22:54:06.698Z,97.57
2023-04-28T22:56:55.063Z,97.54
2023-04-28T22:59:43.570Z,97.72
2023-04-28T23:02:32.089Z,98.02
2023-04-28T23:05:20.648Z,98.76
2023-04-28T23:08:09.014Z,98.54
2023-04-28T23:10:58.810Z,98.09
2023-04-28T23:13:47.185Z,98.28
2023-04-28T23:16:36.318Z,97.95
2023-04-28T23:19:24.942Z,97.82
2023-04-28T23:22:13.281Z,97.42
2023-04-28T23:25:01.780Z,96.73
2023-04-28T23:27:51.600Z,96.59
2023-04-28T23:30:40.190Z,96.58
2023-04-28T23:33:29.587Z,96.41
2023-04-28T23:36:18.564Z,96.48
2023-04-28T23:39:07.849Z,96.28
2023-04-28T23:41:56.178Z,96.74
2023-04-28T23:44:46.173Z,96.27
2023-04-28T23:47:34.610Z,96.13
2023-04-28T23:50:23.860Z,95.83
2023-04-28T23:53:12.651Z,95.77
2023-04-28T23:56:01.152Z,95.91
2023-04-28T23:58:50.173Z,95.83
